sensor_id;sensor_type;location;lat;lon;timestamp;P1;durP1;ratioP1;P2;durP2;ratioP2
68923;SDS011;55961;52.156;20.942;2022-12-29T00:01:21;12.27;;;4.60;;
68923;SDS011;55961;52.156;20.942;2022-12-29T00:03:47;12.73;;;4.65;;
68923;SDS011;55961;52.156;20.942;2022-12-29T00:06:13;11.63;;;4.25;;
68923;SDS011;55961;52.156;20.942;2022-12-29T00:08:39;12.40;;;5.00;;
68923;SDS011;55961;52.156;20.942;2022-12-29T00:11:06;13.48;;;4.35;;
68923;SDS011;55961;52.156;20.942;2022-12-29T00:13:36;12.98;;;5.00;;
68923;SDS011;55961;52.156;20.942;2022-12-29T00:16:38;9.50;;;3.80;;
68923;SDS011;55961;52.156;20.942;2022-12-29T00:19:10;11.20;;;4.23;;
68923;SDS011;55961;52.156;20.942;2022-12-29T00:21:57;12.73;;;4.60;;
68923;SDS011;55961;52.156;20.942;2022-12-29T00:24:43;11.45;;;3.95;;
68923;SDS011;55961;52.156;20.942;2022-12-29T00:27:18;8.40;;;3.60;;
68923;SDS011;55961;52.156;20.942;2022-12-29T00:30:07;9.07;;;4.13;;
68923;SDS011;55961;52.156;20.942;2022-12-29T00:32:53;9.60;;;4.10;;
68923;SDS011;55961;52.156;20.942;2022-12-29T00:35:39;12.45;;;4.18;;
68923;SDS011;55961;52.156;20.942;2022-12-29T00:38:10;7.93;;;3.30;;
68923;SDS011;55961;52.156;20.942;2022-12-29T00:40:56;8.90;;;3.25;;
68923;SDS011;55961;52.156;20.942;2022-12-29T00:43:40;6.88;;;2.83;;
68923;SDS011;55961;52.156;20.942;2022-12-29T00:46:25;7.33;;;3.43;;
68923;SDS011;55961;52.156;20.942;2022-12-29T00:48:51;8.77;;;4.07;;
68923;SDS011;55961;52.156;20.942;2022-12-29T00:51:35;8.50;;;2.97;;
68923;SDS011;55961;52.156;20.942;2022-12-29T00:54:01;10.40;;;3.60;;
68923;SDS011;55961;52.156;20.942;2022-12-29T00:56:27;19.70;;;4.28;;
68923;SDS011;55961;52.156;20.942;2022-12-29T00:58:54;9.48;;;3.72;;
68923;SDS011;55961;52.156;20.942;2022-12-29T01:01:20;9.98;;;3.75;;
68923;SDS011;55961;52.156;20.942;2022-12-29T01:03:46;11.83;;;3.70;;
68923;SDS011;55961;52.156;20.942;2022-12-29T01:06:12;10.68;;;3.17;;
68923;SDS011;55961;52.156;20.942;2022-12-29T01:08:39;10.40;;;4.25;;
68923;SDS011;55961;52.156;20.942;2022-12-29T01:11:12;10.55;;;4.05;;
68923;SDS011;55961;52.156;20.942;2022-12-29T01:13:38;9.63;;;3.23;;
68923;SDS011;55961;52.156;20.942;2022-12-29T01:16:06;9.73;;;4.22;;
68923;SDS011;55961;52.156;20.942;2022-12-29T01:18:32;9.10;;;3.95;;
68923;SDS011;55961;52.156;20.942;2022-12-29T01:21:05;9.50;;;4.00;;
68923;SDS011;55961;52.156;20.942;2022-12-29T01:23:31;9.80;;;3.80;;
68923;SDS011;55961;52.156;20.942;2022-12-29T01:26:03;7.82;;;2.90;;
68923;SDS011;55961;52.156;20.942;2022-12-29T01:28:34;9.20;;;3.40;;
68923;SDS011;55961;52.156;20.942;2022-12-29T01:31:01;8.50;;;3.22;;
68923;SDS011;55961;52.156;20.942;2022-12-29T01:33:26;9.13;;;3.70;;
68923;SDS011;55961;52.156;20.942;2022-12-29T01:35:52;8.67;;;3.40;;
68923;SDS011;55961;52.156;20.942;2022-12-29T01:38:18;7.10;;;2.67;;
68923;SDS011;55961;52.156;20.942;2022-12-29T01:40:45;10.95;;;3.80;;
68923;SDS011;55961;52.156;20.942;2022-12-29T01:43:12;7.47;;;2.72;;
68923;SDS011;55961;52.156;20.942;2022-12-29T01:45:44;8.00;;;3.57;;
68923;SDS011;55961;52.156;20.942;2022-12-29T01:48:14;8.85;;;3.42;;
68923;SDS011;55961;52.156;20.942;2022-12-29T01:50:43;8.85;;;3.17;;
68923;SDS011;55961;52.156;20.942;2022-12-29T01:53:20;9.40;;;3.38;;
68923;SDS011;55961;52.156;20.942;2022-12-29T01:55:53;9.57;;;3.55;;
68923;SDS011;55961;52.156;20.942;2022-12-29T01:58:22;10.27;;;3.27;;
68923;SDS011;55961;52.156;20.942;2022-12-29T02:00:51;9.77;;;3.75;;
68923;SDS011;55961;52.156;20.942;2022-12-29T02:03:17;7.70;;;3.42;;
68923;SDS011;55961;52.156;20.942;2022-12-29T02:05:57;6.82;;;2.65;;
68923;SDS011;55961;52.156;20.942;2022-12-29T02:08:28;6.30;;;2.57;;
68923;SDS011;55961;52.156;20.942;2022-12-29T02:10:55;8.15;;;2.63;;
68923;SDS011;55961;52.156;20.942;2022-12-29T02:13:26;9.25;;;2.63;;
68923;SDS011;55961;52.156;20.942;2022-12-29T02:19:25;9.70;;;3.53;;
68923;SDS011;55961;52.156;20.942;2022-12-29T02:24:53;6.60;;;2.58;;
68923;SDS011;55961;52.156;20.942;2022-12-29T02:27:43;9.10;;;3.05;;
68923;SDS011;55961;52.156;20.942;2022-12-29T02:49:22;9.07;;;3.20;;
68923;SDS011;55961;52.156;20.942;2022-12-29T02:52:01;7.63;;;3.00;;
68923;SDS011;55961;52.156;20.942;2022-12-29T02:54:38;9.07;;;3.13;;
68923;SDS011;55961;52.156;20.942;2022-12-29T02:57:48;5.72;;;2.28;;
68923;SDS011;55961;52.156;20.942;2022-12-29T03:00:16;8.32;;;2.65;;
68923;SDS011;55961;52.156;20.942;2022-12-29T03:03:01;9.97;;;2.87;;
68923;SDS011;55961;52.156;20.942;2022-12-29T03:08:28;9.20;;;2.28;;
68923;SDS011;55961;52.156;20.942;2022-12-29T03:11:05;8.93;;;3.17;;
68923;SDS011;55961;52.156;20.942;2022-12-29T03:14:02;7.80;;;2.60;;
68923;SDS011;55961;52.156;20.942;2022-12-29T03:16:59;7.87;;;2.60;;
68923;SDS011;55961;52.156;20.942;2022-12-29T03:21:59;7.65;;;2.60;;
68923;SDS011;55961;52.156;20.942;2022-12-29T03:24:50;6.88;;;2.65;;
68923;SDS011;55961;52.156;20.942;2022-12-29T03:27:19;7.47;;;2.58;;
68923;SDS011;55961;52.156;20.942;2022-12-29T03:29:51;10.33;;;3.83;;
68923;SDS011;55961;52.156;20.942;2022-12-29T03:32:23;8.95;;;2.80;;
68923;SDS011;55961;52.156;20.942;2022-12-29T03:34:53;8.15;;;3.20;;
68923;SDS011;55961;52.156;20.942;2022-12-29T03:37:29;7.90;;;2.90;;
68923;SDS011;55961;52.156;20.942;2022-12-29T03:40:01;9.40;;;4.13;;
68923;SDS011;55961;52.156;20.942;2022-12-29T03:42:29;8.03;;;3.73;;
68923;SDS011;55961;52.156;20.942;2022-12-29T03:44:57;10.57;;;3.60;;
68923;SDS011;55961;52.156;20.942;2022-12-29T03:47:23;7.88;;;3.22;;
68923;SDS011;55961;52.156;20.942;2022-12-29T03:49:52;7.70;;;2.58;;
68923;SDS011;55961;52.156;20.942;2022-12-29T03:52:18;5.43;;;2.50;;
68923;SDS011;55961;52.156;20.942;2022-12-29T03:54:44;8.93;;;3.20;;
68923;SDS011;55961;52.156;20.942;2022-12-29T03:57:10;9.65;;;3.50;;
68923;SDS011;55961;52.156;20.942;2022-12-29T03:59:36;10.13;;;3.17;;
68923;SDS011;55961;52.156;20.942;2022-12-29T04:02:02;8.75;;;3.00;;
68923;SDS011;55961;52.156;20.942;2022-12-29T04:04:28;8.77;;;3.27;;
68923;SDS011;55961;52.156;20.942;2022-12-29T04:06:54;8.18;;;3.50;;
68923;SDS011;55961;52.156;20.942;2022-12-29T04:09:20;8.82;;;3.08;;
68923;SDS011;55961;52.156;20.942;2022-12-29T04:11:46;8.30;;;3.40;;
68923;SDS011;55961;52.156;20.942;2022-12-29T04:14:11;12.63;;;3.50;;
68923;SDS011;55961;52.156;20.942;2022-12-29T04:16:38;8.60;;;3.33;;
68923;SDS011;55961;52.156;20.942;2022-12-29T04:19:04;10.80;;;4.10;;
68923;SDS011;55961;52.156;20.942;2022-12-29T04:21:31;12.43;;;4.57;;
68923;SDS011;55961;52.156;20.942;2022-12-29T04:23:57;8.65;;;3.33;;
68923;SDS011;55961;52.156;20.942;2022-12-29T04:26:23;11.20;;;3.80;;
68923;SDS011;55961;52.156;20.942;2022-12-29T04:28:48;7.97;;;3.87;;
68923;SDS011;55961;52.156;20.942;2022-12-29T04:31:14;7.90;;;2.83;;
68923;SDS011;55961;52.156;20.942;2022-12-29T04:33:40;9.90;;;3.33;;
68923;SDS011;55961;52.156;20.942;2022-12-29T04:36:06;8.83;;;3.63;;
68923;SDS011;55961;52.156;20.942;2022-12-29T04:38:32;11.48;;;4.47;;
68923;SDS011;55961;52.156;20.942;2022-12-29T04:40:59;11.65;;;4.80;;
68923;SDS011;55961;52.156;20.942;2022-12-29T04:43:26;8.05;;;3.28;;
68923;SDS011;55961;52.156;20.942;2022-12-29T04:45:52;11.33;;;4.70;;
68923;SDS011;55961;52.156;20.942;2022-12-29T04:48:18;22.02;;;7.72;;
68923;SDS011;55961;52.156;20.942;2022-12-29T04:50:46;32.00;;;11.02;;
68923;SDS011;55961;52.156;20.942;2022-12-29T04:53:13;35.87;;;13.33;;
68923;SDS011;55961;52.156;20.942;2022-12-29T04:55:40;42.03;;;15.30;;
68923;SDS011;55961;52.156;20.942;2022-12-29T04:58:05;21.55;;;9.23;;
68923;SDS011;55961;52.156;20.942;2022-12-29T05:00:32;13.40;;;6.30;;
68923;SDS011;55961;52.156;20.942;2022-12-29T05:02:58;12.57;;;5.93;;
68923;SDS011;55961;52.156;20.942;2022-12-29T05:05:24;14.85;;;6.60;;
68923;SDS011;55961;52.156;20.942;2022-12-29T05:07:50;13.95;;;5.38;;
68923;SDS011;55961;52.156;20.942;2022-12-29T05:10:16;12.98;;;5.13;;
68923;SDS011;55961;52.156;20.942;2022-12-29T05:12:42;15.30;;;5.87;;
68923;SDS011;55961;52.156;20.942;2022-12-29T05:15:09;13.98;;;5.20;;
68923;SDS011;55961;52.156;20.942;2022-12-29T05:17:36;15.13;;;5.82;;
68923;SDS011;55961;52.156;20.942;2022-12-29T05:20:03;9.95;;;4.68;;
68923;SDS011;55961;52.156;20.942;2022-12-29T05:22:31;12.00;;;5.43;;
68923;SDS011;55961;52.156;20.942;2022-12-29T05:24:57;13.10;;;5.45;;
68923;SDS011;55961;52.156;20.942;2022-12-29T05:27:23;13.82;;;5.18;;
68923;SDS011;55961;52.156;20.942;2022-12-29T05:29:50;13.18;;;5.40;;
68923;SDS011;55961;52.156;20.942;2022-12-29T05:32:16;22.13;;;13.30;;
68923;SDS011;55961;52.156;20.942;2022-12-29T05:34:42;14.25;;;7.63;;
68923;SDS011;55961;52.156;20.942;2022-12-29T05:37:08;12.47;;;5.00;;
68923;SDS011;55961;52.156;20.942;2022-12-29T05:39:34;11.27;;;4.30;;
68923;SDS011;55961;52.156;20.942;2022-12-29T05:42:00;12.13;;;5.20;;
68923;SDS011;55961;52.156;20.942;2022-12-29T05:44:26;10.98;;;4.53;;
68923;SDS011;55961;52.156;20.942;2022-12-29T05:46:52;20.77;;;6.77;;
68923;SDS011;55961;52.156;20.942;2022-12-29T05:49:18;13.82;;;5.18;;
68923;SDS011;55961;52.156;20.942;2022-12-29T05:51:44;20.35;;;6.90;;
68923;SDS011;55961;52.156;20.942;2022-12-29T05:54:10;20.77;;;7.90;;
68923;SDS011;55961;52.156;20.942;2022-12-29T05:56:36;20.40;;;8.48;;
68923;SDS011;55961;52.156;20.942;2022-12-29T05:59:02;17.55;;;5.63;;
68923;SDS011;55961;52.156;20.942;2022-12-29T06:01:27;13.00;;;5.13;;
68923;SDS011;55961;52.156;20.942;2022-12-29T06:03:53;11.40;;;4.38;;
68923;SDS011;55961;52.156;20.942;2022-12-29T06:06:19;13.20;;;4.57;;
68923;SDS011;55961;52.156;20.942;2022-12-29T06:08:45;11.00;;;3.80;;
68923;SDS011;55961;52.156;20.942;2022-12-29T06:11:11;12.97;;;4.67;;
68923;SDS011;55961;52.156;20.942;2022-12-29T06:13:37;11.70;;;4.28;;
68923;SDS011;55961;52.156;20.942;2022-12-29T06:16:03;8.93;;;4.38;;
68923;SDS011;55961;52.156;20.942;2022-12-29T06:18:29;12.87;;;5.13;;
68923;SDS011;55961;52.156;20.942;2022-12-29T06:20:59;11.85;;;4.25;;
68923;SDS011;55961;52.156;20.942;2022-12-29T06:23:29;12.48;;;4.53;;
68923;SDS011;55961;52.156;20.942;2022-12-29T06:25:55;11.60;;;4.60;;
68923;SDS011;55961;52.156;20.942;2022-12-29T06:28:22;11.20;;;4.05;;
68923;SDS011;55961;52.156;20.942;2022-12-29T06:30:48;8.48;;;3.30;;
68923;SDS011;55961;52.156;20.942;2022-12-29T06:33:15;10.65;;;3.90;;
68923;SDS011;55961;52.156;20.942;2022-12-29T06:35:41;11.35;;;4.13;;
68923;SDS011;55961;52.156;20.942;2022-12-29T06:38:08;11.93;;;4.70;;
68923;SDS011;55961;52.156;20.942;2022-12-29T06:40:34;9.20;;;3.63;;
68923;SDS011;55961;52.156;20.942;2022-12-29T06:43:00;9.48;;;3.42;;
68923;SDS011;55961;52.156;20.942;2022-12-29T06:45:25;10.87;;;3.60;;
68923;SDS011;55961;52.156;20.942;2022-12-29T06:47:51;9.23;;;4.13;;
68923;SDS011;55961;52.156;20.942;2022-12-29T06:50:17;10.35;;;3.80;;
68923;SDS011;55961;52.156;20.942;2022-12-29T06:52:43;6.23;;;2.93;;
68923;SDS011;55961;52.156;20.942;2022-12-29T06:55:09;10.57;;;2.83;;
68923;SDS011;55961;52.156;20.942;2022-12-29T06:57:35;8.98;;;3.70;;
68923;SDS011;55961;52.156;20.942;2022-12-29T07:00:01;14.93;;;4.20;;
68923;SDS011;55961;52.156;20.942;2022-12-29T07:02:28;8.80;;;3.97;;
68923;SDS011;55961;52.156;20.942;2022-12-29T07:04:54;11.38;;;4.13;;
68923;SDS011;55961;52.156;20.942;2022-12-29T07:07:20;9.87;;;3.23;;
68923;SDS011;55961;52.156;20.942;2022-12-29T07:09:46;10.80;;;3.22;;
68923;SDS011;55961;52.156;20.942;2022-12-29T07:12:12;9.38;;;4.70;;
68923;SDS011;55961;52.156;20.942;2022-12-29T07:14:38;7.90;;;2.97;;
68923;SDS011;55961;52.156;20.942;2022-12-29T07:17:04;14.98;;;4.53;;
68923;SDS011;55961;52.156;20.942;2022-12-29T07:19:31;8.13;;;3.33;;
68923;SDS011;55961;52.156;20.942;2022-12-29T07:21:58;8.55;;;3.38;;
68923;SDS011;55961;52.156;20.942;2022-12-29T07:24:24;12.55;;;4.55;;
68923;SDS011;55961;52.156;20.942;2022-12-29T07:26:53;9.30;;;3.53;;
68923;SDS011;55961;52.156;20.942;2022-12-29T07:29:19;11.98;;;3.92;;
68923;SDS011;55961;52.156;20.942;2022-12-29T07:31:45;12.75;;;3.45;;
68923;SDS011;55961;52.156;20.942;2022-12-29T07:34:11;11.57;;;4.23;;
68923;SDS011;55961;52.156;20.942;2022-12-29T07:36:37;10.57;;;3.63;;
68923;SDS011;55961;52.156;20.942;2022-12-29T07:39:02;9.05;;;3.20;;
68923;SDS011;55961;52.156;20.942;2022-12-29T07:41:29;7.97;;;2.87;;
68923;SDS011;55961;52.156;20.942;2022-12-29T07:43:55;8.70;;;3.63;;
68923;SDS011;55961;52.156;20.942;2022-12-29T07:46:21;12.38;;;4.50;;
68923;SDS011;55961;52.156;20.942;2022-12-29T07:48:47;11.00;;;4.07;;
68923;SDS011;55961;52.156;20.942;2022-12-29T07:51:13;14.87;;;6.10;;
68923;SDS011;55961;52.156;20.942;2022-12-29T07:53:38;11.23;;;4.97;;
68923;SDS011;55961;52.156;20.942;2022-12-29T07:56:04;11.27;;;3.95;;
68923;SDS011;55961;52.156;20.942;2022-12-29T07:58:31;9.02;;;3.65;;
68923;SDS011;55961;52.156;20.942;2022-12-29T08:00:57;8.57;;;3.60;;
68923;SDS011;55961;52.156;20.942;2022-12-29T08:03:23;11.38;;;3.38;;
68923;SDS011;55961;52.156;20.942;2022-12-29T08:05:51;7.40;;;3.50;;
68923;SDS011;55961;52.156;20.942;2022-12-29T08:08:17;7.90;;;3.08;;
68923;SDS011;55961;52.156;20.942;2022-12-29T08:10:43;8.97;;;3.50;;
68923;SDS011;55961;52.156;20.942;2022-12-29T08:13:09;10.32;;;3.38;;
68923;SDS011;55961;52.156;20.942;2022-12-29T08:15:36;10.10;;;2.97;;
68923;SDS011;55961;52.156;20.942;2022-12-29T08:18:02;6.75;;;2.67;;
68923;SDS011;55961;52.156;20.942;2022-12-29T08:20:29;10.07;;;3.60;;
68923;SDS011;55961;52.156;20.942;2022-12-29T08:22:54;8.07;;;3.23;;
68923;SDS011;55961;52.156;20.942;2022-12-29T08:25:20;8.13;;;3.17;;
68923;SDS011;55961;52.156;20.942;2022-12-29T08:27:46;8.77;;;2.73;;
68923;SDS011;55961;52.156;20.942;2022-12-29T08:30:12;9.18;;;3.55;;
68923;SDS011;55961;52.156;20.942;2022-12-29T08:32:38;7.65;;;2.97;;
68923;SDS011;55961;52.156;20.942;2022-12-29T08:35:04;6.35;;;2.28;;
68923;SDS011;55961;52.156;20.942;2022-12-29T08:37:31;7.25;;;3.03;;
68923;SDS011;55961;52.156;20.942;2022-12-29T08:39:58;8.27;;;2.83;;
68923;SDS011;55961;52.156;20.942;2022-12-29T08:42:28;9.27;;;2.97;;
68923;SDS011;55961;52.156;20.942;2022-12-29T08:44:59;9.90;;;3.45;;
68923;SDS011;55961;52.156;20.942;2022-12-29T08:47:25;8.85;;;3.40;;
68923;SDS011;55961;52.156;20.942;2022-12-29T08:49:52;5.80;;;2.03;;
68923;SDS011;55961;52.156;20.942;2022-12-29T08:52:17;9.23;;;2.37;;
68923;SDS011;55961;52.156;20.942;2022-12-29T08:54:44;9.85;;;3.42;;
68923;SDS011;55961;52.156;20.942;2022-12-29T08:57:09;7.72;;;2.13;;
68923;SDS011;55961;52.156;20.942;2022-12-29T08:59:36;8.07;;;2.93;;
68923;SDS011;55961;52.156;20.942;2022-12-29T09:02:01;7.18;;;2.60;;
68923;SDS011;55961;52.156;20.942;2022-12-29T09:04:28;8.80;;;3.17;;
68923;SDS011;55961;52.156;20.942;2022-12-29T09:06:54;6.57;;;2.07;;
68923;SDS011;55961;52.156;20.942;2022-12-29T09:09:20;8.35;;;3.28;;
68923;SDS011;55961;52.156;20.942;2022-12-29T09:11:46;6.78;;;2.20;;
68923;SDS011;55961;52.156;20.942;2022-12-29T09:14:12;7.95;;;2.90;;
68923;SDS011;55961;52.156;20.942;2022-12-29T09:16:38;7.00;;;3.28;;
68923;SDS011;55961;52.156;20.942;2022-12-29T09:19:04;8.67;;;3.40;;
68923;SDS011;55961;52.156;20.942;2022-12-29T09:21:30;9.02;;;3.03;;
68923;SDS011;55961;52.156;20.942;2022-12-29T09:23:56;10.07;;;3.25;;
68923;SDS011;55961;52.156;20.942;2022-12-29T09:26:22;10.47;;;3.40;;
68923;SDS011;55961;52.156;20.942;2022-12-29T09:28:48;8.43;;;4.15;;
68923;SDS011;55961;52.156;20.942;2022-12-29T09:31:14;8.70;;;3.30;;
68923;SDS011;55961;52.156;20.942;2022-12-29T09:33:40;8.73;;;3.88;;
68923;SDS011;55961;52.156;20.942;2022-12-29T09:36:06;6.93;;;2.63;;
68923;SDS011;55961;52.156;20.942;2022-12-29T09:38:33;8.05;;;2.50;;
68923;SDS011;55961;52.156;20.942;2022-12-29T09:41:46;7.40;;;2.83;;
68923;SDS011;55961;52.156;20.942;2022-12-29T09:43:54;9.20;;;3.03;;
68923;SDS011;55961;52.156;20.942;2022-12-29T09:46:25;7.40;;;3.25;;
68923;SDS011;55961;52.156;20.942;2022-12-29T09:51:51;10.18;;;4.03;;
68923;SDS011;55961;52.156;20.942;2022-12-29T09:56:57;6.88;;;3.13;;
68923;SDS011;55961;52.156;20.942;2022-12-29T09:59:24;7.25;;;3.30;;
68923;SDS011;55961;52.156;20.942;2022-12-29T10:10:42;8.65;;;4.20;;
68923;SDS011;55961;52.156;20.942;2022-12-29T10:24:41;9.15;;;3.05;;
68923;SDS011;55961;52.156;20.942;2022-12-29T10:27:10;11.48;;;4.00;;
68923;SDS011;55961;52.156;20.942;2022-12-29T10:29:41;10.73;;;5.07;;
68923;SDS011;55961;52.156;20.942;2022-12-29T10:43:29;7.07;;;3.70;;
68923;SDS011;55961;52.156;20.942;2022-12-29T10:46:02;7.95;;;3.72;;
68923;SDS011;55961;52.156;20.942;2022-12-29T10:48:31;11.77;;;4.47;;
68923;SDS011;55961;52.156;20.942;2022-12-29T10:50:59;8.88;;;4.00;;
68923;SDS011;55961;52.156;20.942;2022-12-29T10:53:29;7.75;;;3.72;;
68923;SDS011;55961;52.156;20.942;2022-12-29T10:56:00;13.20;;;5.47;;
68923;SDS011;55961;52.156;20.942;2022-12-29T10:58:27;10.68;;;5.10;;
68923;SDS011;55961;52.156;20.942;2022-12-29T11:00:56;7.30;;;2.80;;
68923;SDS011;55961;52.156;20.942;2022-12-29T11:06:26;10.57;;;4.22;;
68923;SDS011;55961;52.156;20.942;2022-12-29T11:08:55;11.27;;;4.83;;
68923;SDS011;55961;52.156;20.942;2022-12-29T11:11:35;10.63;;;5.22;;
68923;SDS011;55961;52.156;20.942;2022-12-29T11:14:27;8.52;;;3.42;;
68923;SDS011;55961;52.156;20.942;2022-12-29T11:16:59;9.77;;;3.75;;
68923;SDS011;55961;52.156;20.942;2022-12-29T11:19:27;8.82;;;3.80;;
68923;SDS011;55961;52.156;20.942;2022-12-29T11:22:12;15.87;;;5.57;;
68923;SDS011;55961;52.156;20.942;2022-12-29T11:24:48;9.52;;;4.75;;
68923;SDS011;55961;52.156;20.942;2022-12-29T11:27:25;11.90;;;5.50;;
68923;SDS011;55961;52.156;20.942;2022-12-29T11:29:52;10.95;;;5.35;;
68923;SDS011;55961;52.156;20.942;2022-12-29T11:32:23;11.20;;;5.60;;
68923;SDS011;55961;52.156;20.942;2022-12-29T11:34:50;11.20;;;5.20;;
68923;SDS011;55961;52.156;20.942;2022-12-29T11:37:30;13.40;;;4.95;;
68923;SDS011;55961;52.156;20.942;2022-12-29T11:45:24;10.50;;;4.55;;
68923;SDS011;55961;52.156;20.942;2022-12-29T11:47:56;9.43;;;3.70;;
68923;SDS011;55961;52.156;20.942;2022-12-29T11:50:29;10.90;;;4.32;;
68923;SDS011;55961;52.156;20.942;2022-12-29T11:52:58;8.65;;;4.35;;
68923;SDS011;55961;52.156;20.942;2022-12-29T11:55:25;8.25;;;3.75;;
68923;SDS011;55961;52.156;20.942;2022-12-29T11:57:53;9.27;;;3.75;;
68923;SDS011;55961;52.156;20.942;2022-12-29T12:00:23;10.93;;;3.70;;
68923;SDS011;55961;52.156;20.942;2022-12-29T12:05:31;11.57;;;5.30;;
68923;SDS011;55961;52.156;20.942;2022-12-29T12:08:07;11.82;;;4.65;;
68923;SDS011;55961;52.156;20.942;2022-12-29T12:10:43;10.43;;;3.83;;
68923;SDS011;55961;52.156;20.942;2022-12-29T12:13:22;15.23;;;8.13;;
68923;SDS011;55961;52.156;20.942;2022-12-29T12:16:06;12.30;;;5.97;;
68923;SDS011;55961;52.156;20.942;2022-12-29T12:21:34;14.13;;;8.02;;
68923;SDS011;55961;52.156;20.942;2022-12-29T12:27:29;16.67;;;7.63;;
68923;SDS011;55961;52.156;20.942;2022-12-29T12:30:11;16.52;;;9.32;;
68923;SDS011;55961;52.156;20.942;2022-12-29T12:35:12;11.35;;;4.57;;
68923;SDS011;55961;52.156;20.942;2022-12-29T12:40:39;13.47;;;5.53;;
68923;SDS011;55961;52.156;20.942;2022-12-29T13:00:03;12.80;;;6.78;;
68923;SDS011;55961;52.156;20.942;2022-12-29T13:05:47;13.75;;;5.30;;
68923;SDS011;55961;52.156;20.942;2022-12-29T13:11:00;16.45;;;7.90;;
68923;SDS011;55961;52.156;20.942;2022-12-29T13:16:06;10.77;;;6.25;;
68923;SDS011;55961;52.156;20.942;2022-12-29T13:27:03;11.88;;;5.72;;
68923;SDS011;55961;52.156;20.942;2022-12-29T13:29:50;9.15;;;4.28;;
68923;SDS011;55961;52.156;20.942;2022-12-29T13:32:31;14.27;;;9.48;;
68923;SDS011;55961;52.156;20.942;2022-12-29T13:37:33;11.13;;;5.30;;
68923;SDS011;55961;52.156;20.942;2022-12-29T13:40:10;10.60;;;5.50;;
68923;SDS011;55961;52.156;20.942;2022-12-29T13:42:41;10.90;;;4.95;;
68923;SDS011;55961;52.156;20.942;2022-12-29T13:45:13;14.93;;;7.15;;
68923;SDS011;55961;52.156;20.942;2022-12-29T13:47:43;9.83;;;4.53;;
68923;SDS011;55961;52.156;20.942;2022-12-29T13:50:24;12.10;;;4.90;;
68923;SDS011;55961;52.156;20.942;2022-12-29T13:55:38;12.32;;;6.55;;
68923;SDS011;55961;52.156;20.942;2022-12-29T13:58:14;11.88;;;6.82;;
68923;SDS011;55961;52.156;20.942;2022-12-29T14:01:00;10.60;;;4.47;;
68923;SDS011;55961;52.156;20.942;2022-12-29T14:06:30;11.43;;;5.10;;
68923;SDS011;55961;52.156;20.942;2022-12-29T14:09:01;11.60;;;5.82;;
68923;SDS011;55961;52.156;20.942;2022-12-29T14:11:36;10.52;;;5.70;;
68923;SDS011;55961;52.156;20.942;2022-12-29T14:14:11;9.57;;;3.93;;
68923;SDS011;55961;52.156;20.942;2022-12-29T14:16:44;10.23;;;5.60;;
68923;SDS011;55961;52.156;20.942;2022-12-29T14:19:26;10.00;;;4.70;;
68923;SDS011;55961;52.156;20.942;2022-12-29T14:22:00;14.45;;;6.85;;
68923;SDS011;55961;52.156;20.942;2022-12-29T14:26:58;20.50;;;8.00;;
68923;SDS011;55961;52.156;20.942;2022-12-29T14:31:50;13.55;;;7.43;;
68923;SDS011;55961;52.156;20.942;2022-12-29T14:36:53;10.30;;;5.23;;
68923;SDS011;55961;52.156;20.942;2022-12-29T14:47:38;14.25;;;6.63;;
68923;SDS011;55961;52.156;20.942;2022-12-29T14:57:44;11.82;;;5.85;;
68923;SDS011;55961;52.156;20.942;2022-12-29T15:02:46;8.83;;;5.07;;
68923;SDS011;55961;52.156;20.942;2022-12-29T15:05:23;15.15;;;7.43;;
68923;SDS011;55961;52.156;20.942;2022-12-29T15:07:56;20.50;;;11.25;;
68923;SDS011;55961;52.156;20.942;2022-12-29T15:10:23;13.93;;;5.90;;
68923;SDS011;55961;52.156;20.942;2022-12-29T15:12:52;25.77;;;15.82;;
68923;SDS011;55961;52.156;20.942;2022-12-29T15:15:27;16.93;;;9.30;;
68923;SDS011;55961;52.156;20.942;2022-12-29T15:17:55;12.68;;;6.20;;
68923;SDS011;55961;52.156;20.942;2022-12-29T15:20:25;17.17;;;7.25;;
68923;SDS011;55961;52.156;20.942;2022-12-29T15:22:57;16.10;;;7.03;;
68923;SDS011;55961;52.156;20.942;2022-12-29T15:25:27;24.60;;;13.43;;
68923;SDS011;55961;52.156;20.942;2022-12-29T15:27:55;19.55;;;7.97;;
68923;SDS011;55961;52.156;20.942;2022-12-29T15:30:27;19.13;;;7.00;;
68923;SDS011;55961;52.156;20.942;2022-12-29T15:32:58;27.55;;;11.75;;
68923;SDS011;55961;52.156;20.942;2022-12-29T15:35:36;28.50;;;13.47;;
68923;SDS011;55961;52.156;20.942;2022-12-29T15:38:15;16.83;;;7.55;;
68923;SDS011;55961;52.156;20.942;2022-12-29T15:43:58;19.50;;;9.00;;
68923;SDS011;55961;52.156;20.942;2022-12-29T15:46:36;15.95;;;8.10;;
68923;SDS011;55961;52.156;20.942;2022-12-29T15:49:08;18.27;;;7.63;;
68923;SDS011;55961;52.156;20.942;2022-12-29T15:51:38;16.38;;;7.05;;
68923;SDS011;55961;52.156;20.942;2022-12-29T15:54:06;13.55;;;6.20;;
68923;SDS011;55961;52.156;20.942;2022-12-29T15:56:48;16.95;;;9.02;;
68923;SDS011;55961;52.156;20.942;2022-12-29T15:59:48;14.75;;;6.38;;
68923;SDS011;55961;52.156;20.942;2022-12-29T16:02:11;11.63;;;4.97;;
68923;SDS011;55961;52.156;20.942;2022-12-29T16:04:37;13.45;;;7.03;;
68923;SDS011;55961;52.156;20.942;2022-12-29T16:07:05;12.05;;;6.32;;
68923;SDS011;55961;52.156;20.942;2022-12-29T16:09:46;14.35;;;6.45;;
68923;SDS011;55961;52.156;20.942;2022-12-29T16:12:17;14.38;;;6.13;;
68923;SDS011;55961;52.156;20.942;2022-12-29T16:14:54;11.83;;;5.80;;
68923;SDS011;55961;52.156;20.942;2022-12-29T16:17:23;15.63;;;8.55;;
68923;SDS011;55961;52.156;20.942;2022-12-29T16:19:54;20.38;;;7.78;;
68923;SDS011;55961;52.156;20.942;2022-12-29T16:22:30;12.77;;;5.50;;
68923;SDS011;55961;52.156;20.942;2022-12-29T16:25:00;19.33;;;8.00;;
68923;SDS011;55961;52.156;20.942;2022-12-29T16:27:36;14.07;;;6.13;;
68923;SDS011;55961;52.156;20.942;2022-12-29T16:30:06;14.00;;;7.22;;
68923;SDS011;55961;52.156;20.942;2022-12-29T16:32:48;15.57;;;7.65;;
68923;SDS011;55961;52.156;20.942;2022-12-29T16:35:26;12.82;;;6.50;;
68923;SDS011;55961;52.156;20.942;2022-12-29T16:43:36;19.08;;;8.45;;
68923;SDS011;55961;52.156;20.942;2022-12-29T16:46:26;21.17;;;10.25;;
68923;SDS011;55961;52.156;20.942;2022-12-29T16:48:54;16.58;;;7.88;;
68923;SDS011;55961;52.156;20.942;2022-12-29T16:51:24;18.73;;;9.77;;
68923;SDS011;55961;52.156;20.942;2022-12-29T16:53:58;23.10;;;9.87;;
68923;SDS011;55961;52.156;20.942;2022-12-29T16:56:27;20.63;;;8.70;;
68923;SDS011;55961;52.156;20.942;2022-12-29T16:59:00;20.73;;;9.10;;
68923;SDS011;55961;52.156;20.942;2022-12-29T17:01:37;13.15;;;6.18;;
68923;SDS011;55961;52.156;20.942;2022-12-29T17:04:05;15.98;;;6.72;;
68923;SDS011;55961;52.156;20.942;2022-12-29T17:06:36;17.20;;;6.63;;
68923;SDS011;55961;52.156;20.942;2022-12-29T17:09:02;13.90;;;6.25;;
68923;SDS011;55961;52.156;20.942;2022-12-29T17:11:41;17.40;;;5.65;;
68923;SDS011;55961;52.156;20.942;2022-12-29T17:17:13;11.07;;;5.63;;
68923;SDS011;55961;52.156;20.942;2022-12-29T17:19:39;12.48;;;6.40;;
68923;SDS011;55961;52.156;20.942;2022-12-29T17:22:23;15.10;;;7.15;;
68923;SDS011;55961;52.156;20.942;2022-12-29T17:24:52;12.52;;;6.22;;
68923;SDS011;55961;52.156;20.942;2022-12-29T17:30:01;14.47;;;5.90;;
68923;SDS011;55961;52.156;20.942;2022-12-29T17:32:30;13.50;;;5.78;;
68923;SDS011;55961;52.156;20.942;2022-12-29T17:34:57;16.90;;;6.97;;
68923;SDS011;55961;52.156;20.942;2022-12-29T17:39:48;21.33;;;11.57;;